sensor_id;sensor_type;location;lat;lon;timestamp;P1;durP1;ratioP1;P2;durP2;ratioP2
23743;SDS011;12052;53.478;10.182;2023-09-08T00:02:18;7.35;;;4.35;;
23743;SDS011;12052;53.478;10.182;2023-09-08T00:04:43;6.15;;;3.80;;
23743;SDS011;12052;53.478;10.182;2023-09-08T00:07:09;5.65;;;3.88;;
23743;SDS011;12052;53.478;10.182;2023-09-08T00:09:34;6.20;;;4.07;;
23743;SDS011;12052;53.478;10.182;2023-09-08T00:12:00;6.97;;;4.22;;
23743;SDS011;12052;53.478;10.182;2023-09-08T00:14:26;9.38;;;3.65;;
23743;SDS011;12052;53.478;10.182;2023-09-08T00:16:52;5.93;;;3.80;;
23743;SDS011;12052;53.478;10.182;2023-09-08T00:19:21;7.28;;;4.22;;
23743;SDS011;12052;53.478;10.182;2023-09-08T00:21:48;6.35;;;3.92;;
23743;SDS011;12052;53.478;10.182;2023-09-08T00:24:14;7.30;;;4.35;;
23743;SDS011;12052;53.478;10.182;2023-09-08T00:26:40;5.75;;;3.40;;
23743;SDS011;12052;53.478;10.182;2023-09-08T00:29:06;7.70;;;4.22;;
23743;SDS011;12052;53.478;10.182;2023-09-08T00:31:31;7.22;;;4.15;;
23743;SDS011;12052;53.478;10.182;2023-09-08T00:33:58;6.45;;;3.97;;
23743;SDS011;12052;53.478;10.182;2023-09-08T00:36:23;5.93;;;3.95;;
23743;SDS011;12052;53.478;10.182;2023-09-08T00:38:49;6.00;;;3.80;;
23743;SDS011;12052;53.478;10.182;2023-09-08T00:41:15;8.30;;;4.10;;
23743;SDS011;12052;53.478;10.182;2023-09-08T00:43:40;6.97;;;3.83;;
23743;SDS011;12052;53.478;10.182;2023-09-08T00:46:06;6.47;;;3.80;;
23743;SDS011;12052;53.478;10.182;2023-09-08T00:48:32;7.32;;;3.45;;
23743;SDS011;12052;53.478;10.182;2023-09-08T00:50:59;6.32;;;4.20;;
23743;SDS011;12052;53.478;10.182;2023-09-08T00:53:25;5.55;;;3.83;;
23743;SDS011;12052;53.478;10.182;2023-09-08T00:55:51;7.40;;;3.83;;
23743;SDS011;12052;53.478;10.182;2023-09-08T00:58:17;9.00;;;3.78;;
23743;SDS011;12052;53.478;10.182;2023-09-08T01:00:43;5.97;;;4.10;;
23743;SDS011;12052;53.478;10.182;2023-09-08T01:03:09;8.20;;;4.57;;
23743;SDS011;12052;53.478;10.182;2023-09-08T01:05:38;4.88;;;3.53;;
23743;SDS011;12052;53.478;10.182;2023-09-08T01:08:04;6.18;;;3.90;;
23743;SDS011;12052;53.478;10.182;2023-09-08T01:10:30;6.32;;;4.00;;
23743;SDS011;12052;53.478;10.182;2023-09-08T01:12:56;6.95;;;3.60;;
23743;SDS011;12052;53.478;10.182;2023-09-08T01:15:22;6.90;;;3.90;;
23743;SDS011;12052;53.478;10.182;2023-09-08T01:17:47;7.10;;;3.85;;
23743;SDS011;12052;53.478;10.182;2023-09-08T01:20:23;6.10;;;4.10;;
23743;SDS011;12052;53.478;10.182;2023-09-08T01:25:21;6.85;;;3.58;;
23743;SDS011;12052;53.478;10.182;2023-09-08T01:27:54;7.13;;;4.45;;
23743;SDS011;12052;53.478;10.182;2023-09-08T01:30:23;7.05;;;4.22;;
23743;SDS011;12052;53.478;10.182;2023-09-08T01:32:50;7.30;;;3.97;;
23743;SDS011;12052;53.478;10.182;2023-09-08T01:35:16;7.68;;;4.25;;
23743;SDS011;12052;53.478;10.182;2023-09-08T01:37:42;8.02;;;4.20;;
23743;SDS011;12052;53.478;10.182;2023-09-08T01:40:10;7.10;;;3.88;;
23743;SDS011;12052;53.478;10.182;2023-09-08T01:42:39;4.95;;;3.80;;
23743;SDS011;12052;53.478;10.182;2023-09-08T01:45:05;5.93;;;4.07;;
23743;SDS011;12052;53.478;10.182;2023-09-08T01:47:32;7.68;;;4.40;;
23743;SDS011;12052;53.478;10.182;2023-09-08T01:49:58;6.30;;;3.83;;
23743;SDS011;12052;53.478;10.182;2023-09-08T01:52:23;7.47;;;4.07;;
23743;SDS011;12052;53.478;10.182;2023-09-08T01:54:50;6.35;;;3.92;;
23743;SDS011;12052;53.478;10.182;2023-09-08T01:57:15;8.75;;;5.00;;
23743;SDS011;12052;53.478;10.182;2023-09-08T01:59:41;7.43;;;4.88;;
23743;SDS011;12052;53.478;10.182;2023-09-08T02:02:07;5.72;;;4.07;;
23743;SDS011;12052;53.478;10.182;2023-09-08T02:04:32;8.05;;;4.22;;
23743;SDS011;12052;53.478;10.182;2023-09-08T02:06:58;6.03;;;4.05;;
23743;SDS011;12052;53.478;10.182;2023-09-08T02:09:36;7.47;;;4.82;;
23743;SDS011;12052;53.478;10.182;2023-09-08T02:12:03;6.43;;;4.68;;
23743;SDS011;12052;53.478;10.182;2023-09-08T02:14:29;8.25;;;4.22;;
23743;SDS011;12052;53.478;10.182;2023-09-08T02:16:55;7.35;;;4.88;;
23743;SDS011;12052;53.478;10.182;2023-09-08T02:19:21;12.25;;;4.72;;
23743;SDS011;12052;53.478;10.182;2023-09-08T02:21:47;8.38;;;4.53;;
23743;SDS011;12052;53.478;10.182;2023-09-08T02:24:12;4.72;;;3.90;;
23743;SDS011;12052;53.478;10.182;2023-09-08T02:26:38;8.77;;;4.80;;
23743;SDS011;12052;53.478;10.182;2023-09-08T02:29:04;5.05;;;4.10;;
23743;SDS011;12052;53.478;10.182;2023-09-08T02:31:30;7.57;;;5.28;;
23743;SDS011;12052;53.478;10.182;2023-09-08T02:33:55;10.90;;;4.78;;
23743;SDS011;12052;53.478;10.182;2023-09-08T02:36:21;5.85;;;4.15;;
23743;SDS011;12052;53.478;10.182;2023-09-08T02:38:53;11.25;;;4.35;;
23743;SDS011;12052;53.478;10.182;2023-09-08T02:41:19;7.22;;;4.63;;
23743;SDS011;12052;53.478;10.182;2023-09-08T02:43:45;6.20;;;4.10;;
23743;SDS011;12052;53.478;10.182;2023-09-08T02:46:11;6.78;;;4.60;;
23743;SDS011;12052;53.478;10.182;2023-09-08T02:48:37;6.55;;;4.43;;
23743;SDS011;12052;53.478;10.182;2023-09-08T02:51:03;7.60;;;4.65;;
23743;SDS011;12052;53.478;10.182;2023-09-08T02:53:29;5.03;;;4.05;;
23743;SDS011;12052;53.478;10.182;2023-09-08T02:55:55;6.78;;;4.40;;
23743;SDS011;12052;53.478;10.182;2023-09-08T02:58:21;11.40;;;4.80;;
23743;SDS011;12052;53.478;10.182;2023-09-08T03:00:47;8.60;;;4.90;;
23743;SDS011;12052;53.478;10.182;2023-09-08T03:03:13;8.25;;;4.93;;
23743;SDS011;12052;53.478;10.182;2023-09-08T03:05:39;6.97;;;4.47;;
23743;SDS011;12052;53.478;10.182;2023-09-08T03:08:05;10.25;;;5.60;;
23743;SDS011;12052;53.478;10.182;2023-09-08T03:10:30;9.00;;;5.15;;
23743;SDS011;12052;53.478;10.182;2023-09-08T03:12:59;7.65;;;4.40;;
23743;SDS011;12052;53.478;10.182;2023-09-08T03:15:25;7.28;;;4.90;;
23743;SDS011;12052;53.478;10.182;2023-09-08T03:17:53;8.48;;;5.20;;
23743;SDS011;12052;53.478;10.182;2023-09-08T03:20:19;10.32;;;4.82;;
23743;SDS011;12052;53.478;10.182;2023-09-08T03:22:45;8.68;;;4.35;;
23743;SDS011;12052;53.478;10.182;2023-09-08T03:25:10;7.88;;;4.93;;
23743;SDS011;12052;53.478;10.182;2023-09-08T03:27:38;8.23;;;5.05;;
23743;SDS011;12052;53.478;10.182;2023-09-08T03:30:03;6.10;;;4.80;;
23743;SDS011;12052;53.478;10.182;2023-09-08T03:32:29;8.02;;;5.07;;
23743;SDS011;12052;53.478;10.182;2023-09-08T03:34:56;8.80;;;5.07;;
23743;SDS011;12052;53.478;10.182;2023-09-08T03:37:22;7.20;;;4.78;;
23743;SDS011;12052;53.478;10.182;2023-09-08T03:39:47;10.38;;;4.90;;
23743;SDS011;12052;53.478;10.182;2023-09-08T03:42:13;8.50;;;5.55;;
23743;SDS011;12052;53.478;10.182;2023-09-08T03:44:39;8.25;;;5.30;;
23743;SDS011;12052;53.478;10.182;2023-09-08T03:47:04;8.85;;;5.43;;
23743;SDS011;12052;53.478;10.182;2023-09-08T03:49:30;7.93;;;5.15;;
23743;SDS011;12052;53.478;10.182;2023-09-08T03:51:56;7.80;;;4.95;;
23743;SDS011;12052;53.478;10.182;2023-09-08T03:54:23;9.13;;;4.97;;
23743;SDS011;12052;53.478;10.182;2023-09-08T03:56:48;7.90;;;5.68;;
23743;SDS011;12052;53.478;10.182;2023-09-08T03:59:14;8.65;;;5.88;;
23743;SDS011;12052;53.478;10.182;2023-09-08T04:01:40;10.10;;;5.63;;
23743;SDS011;12052;53.478;10.182;2023-09-08T04:04:05;8.00;;;5.32;;
23743;SDS011;12052;53.478;10.182;2023-09-08T04:06:31;8.52;;;5.20;;
23743;SDS011;12052;53.478;10.182;2023-09-08T04:08:56;9.15;;;6.22;;
23743;SDS011;12052;53.478;10.182;2023-09-08T04:11:22;10.40;;;5.60;;
23743;SDS011;12052;53.478;10.182;2023-09-08T04:13:47;9.73;;;5.50;;
23743;SDS011;12052;53.478;10.182;2023-09-08T04:16:13;9.30;;;5.20;;
23743;SDS011;12052;53.478;10.182;2023-09-08T04:18:39;9.77;;;6.07;;
23743;SDS011;12052;53.478;10.182;2023-09-08T04:21:06;9.95;;;6.35;;
23743;SDS011;12052;53.478;10.182;2023-09-08T04:23:32;9.88;;;5.60;;
23743;SDS011;12052;53.478;10.182;2023-09-08T04:25:58;8.45;;;5.80;;
23743;SDS011;12052;53.478;10.182;2023-09-08T04:28:23;7.63;;;5.30;;
23743;SDS011;12052;53.478;10.182;2023-09-08T04:30:49;8.73;;;6.00;;
23743;SDS011;12052;53.478;10.182;2023-09-08T04:33:14;12.05;;;5.32;;
23743;SDS011;12052;53.478;10.182;2023-09-08T04:35:40;10.55;;;5.82;;
23743;SDS011;12052;53.478;10.182;2023-09-08T04:38:06;7.95;;;5.10;;
23743;SDS011;12052;53.478;10.182;2023-09-08T04:40:31;11.27;;;5.68;;
23743;SDS011;12052;53.478;10.182;2023-09-08T04:42:57;8.90;;;5.45;;
23743;SDS011;12052;53.478;10.182;2023-09-08T04:45:23;8.50;;;6.05;;
23743;SDS011;12052;53.478;10.182;2023-09-08T04:47:48;8.10;;;5.90;;
23743;SDS011;12052;53.478;10.182;2023-09-08T04:50:14;9.63;;;5.57;;
23743;SDS011;12052;53.478;10.182;2023-09-08T04:52:40;8.48;;;5.70;;
23743;SDS011;12052;53.478;10.182;2023-09-08T04:55:06;10.23;;;6.30;;
23743;SDS011;12052;53.478;10.182;2023-09-08T04:57:32;9.60;;;5.35;;
23743;SDS011;12052;53.478;10.182;2023-09-08T04:59:57;9.32;;;5.97;;
23743;SDS011;12052;53.478;10.182;2023-09-08T05:02:23;10.93;;;6.18;;
23743;SDS011;12052;53.478;10.182;2023-09-08T05:04:48;12.27;;;7.38;;
23743;SDS011;12052;53.478;10.182;2023-09-08T05:07:14;12.00;;;7.28;;
23743;SDS011;12052;53.478;10.182;2023-09-08T05:09:39;13.23;;;8.27;;
23743;SDS011;12052;53.478;10.182;2023-09-08T05:12:05;17.45;;;9.48;;
23743;SDS011;12052;53.478;10.182;2023-09-08T05:14:31;17.73;;;10.52;;
23743;SDS011;12052;53.478;10.182;2023-09-08T05:16:56;20.40;;;13.00;;
23743;SDS011;12052;53.478;10.182;2023-09-08T05:19:22;25.40;;;13.50;;
23743;SDS011;12052;53.478;10.182;2023-09-08T05:21:49;29.13;;;14.48;;
23743;SDS011;12052;53.478;10.182;2023-09-08T05:24:16;29.77;;;14.82;;
23743;SDS011;12052;53.478;10.182;2023-09-08T05:26:41;27.33;;;14.82;;
23743;SDS011;12052;53.478;10.182;2023-09-08T05:29:07;32.88;;;14.40;;
23743;SDS011;12052;53.478;10.182;2023-09-08T05:31:33;30.25;;;13.65;;
23743;SDS011;12052;53.478;10.182;2023-09-08T05:33:58;31.40;;;13.23;;
23743;SDS011;12052;53.478;10.182;2023-09-08T05:36:24;28.17;;;12.13;;
23743;SDS011;12052;53.478;10.182;2023-09-08T05:38:49;23.05;;;11.52;;
23743;SDS011;12052;53.478;10.182;2023-09-08T05:41:15;23.85;;;11.18;;
23743;SDS011;12052;53.478;10.182;2023-09-08T05:43:40;26.63;;;11.45;;
23743;SDS011;12052;53.478;10.182;2023-09-08T05:46:06;26.30;;;11.88;;
23743;SDS011;12052;53.478;10.182;2023-09-08T05:48:31;31.98;;;11.38;;
23743;SDS011;12052;53.478;10.182;2023-09-08T05:50:57;21.25;;;11.02;;
23743;SDS011;12052;53.478;10.182;2023-09-08T05:53:23;23.73;;;9.77;;
23743;SDS011;12052;53.478;10.182;2023-09-08T05:55:49;23.70;;;10.82;;
23743;SDS011;12052;53.478;10.182;2023-09-08T05:58:14;25.42;;;9.77;;
23743;SDS011;12052;53.478;10.182;2023-09-08T06:00:40;19.75;;;9.70;;
23743;SDS011;12052;53.478;10.182;2023-09-08T06:03:06;23.73;;;10.15;;
23743;SDS011;12052;53.478;10.182;2023-09-08T06:05:32;25.65;;;10.00;;
23743;SDS011;12052;53.478;10.182;2023-09-08T06:07:57;22.52;;;9.77;;
23743;SDS011;12052;53.478;10.182;2023-09-08T06:10:23;20.15;;;10.38;;
23743;SDS011;12052;53.478;10.182;2023-09-08T06:12:48;20.05;;;9.35;;
23743;SDS011;12052;53.478;10.182;2023-09-08T06:15:15;23.85;;;10.32;;
23743;SDS011;12052;53.478;10.182;2023-09-08T06:17:42;24.15;;;9.77;;
23743;SDS011;12052;53.478;10.182;2023-09-08T06:20:07;23.45;;;10.57;;
23743;SDS011;12052;53.478;10.182;2023-09-08T06:22:33;22.27;;;9.75;;
23743;SDS011;12052;53.478;10.182;2023-09-08T06:24:59;18.30;;;8.75;;
23743;SDS011;12052;53.478;10.182;2023-09-08T06:27:25;19.45;;;9.27;;
23743;SDS011;12052;53.478;10.182;2023-09-08T06:29:50;15.82;;;7.97;;
23743;SDS011;12052;53.478;10.182;2023-09-08T06:32:16;14.50;;;7.32;;
23743;SDS011;12052;53.478;10.182;2023-09-08T06:34:41;14.63;;;7.15;;
23743;SDS011;12052;53.478;10.182;2023-09-08T06:37:08;16.70;;;8.05;;
23743;SDS011;12052;53.478;10.182;2023-09-08T06:39:33;19.20;;;6.95;;
23743;SDS011;12052;53.478;10.182;2023-09-08T06:41:59;11.25;;;6.40;;
23743;SDS011;12052;53.478;10.182;2023-09-08T06:44:24;7.60;;;5.70;;
23743;SDS011;12052;53.478;10.182;2023-09-08T06:46:50;12.13;;;7.15;;
23743;SDS011;12052;53.478;10.182;2023-09-08T06:49:16;10.85;;;5.65;;
23743;SDS011;12052;53.478;10.182;2023-09-08T06:51:42;8.43;;;5.25;;
23743;SDS011;12052;53.478;10.182;2023-09-08T06:54:08;9.02;;;6.00;;
23743;SDS011;12052;53.478;10.182;2023-09-08T06:56:35;10.60;;;6.25;;
23743;SDS011;12052;53.478;10.182;2023-09-08T06:59:00;7.13;;;5.22;;
23743;SDS011;12052;53.478;10.182;2023-09-08T07:01:26;8.48;;;5.55;;
23743;SDS011;12052;53.478;10.182;2023-09-08T07:03:52;8.98;;;6.25;;
23743;SDS011;12052;53.478;10.182;2023-09-08T07:06:18;7.50;;;4.95;;
23743;SDS011;12052;53.478;10.182;2023-09-08T07:08:43;10.43;;;5.55;;
23743;SDS011;12052;53.478;10.182;2023-09-08T07:11:09;10.05;;;5.82;;
23743;SDS011;12052;53.478;10.182;2023-09-08T07:13:34;13.35;;;5.70;;
23743;SDS011;12052;53.478;10.182;2023-09-08T07:16:00;11.40;;;6.07;;
23743;SDS011;12052;53.478;10.182;2023-09-08T07:18:26;8.07;;;5.35;;
23743;SDS011;12052;53.478;10.182;2023-09-08T07:20:51;7.38;;;5.18;;
23743;SDS011;12052;53.478;10.182;2023-09-08T07:23:17;9.23;;;5.97;;
23743;SDS011;12052;53.478;10.182;2023-09-08T07:25:47;9.77;;;5.53;;
23743;SDS011;12052;53.478;10.182;2023-09-08T07:28:13;8.18;;;5.32;;
23743;SDS011;12052;53.478;10.182;2023-09-08T07:30:38;10.07;;;5.57;;
23743;SDS011;12052;53.478;10.182;2023-09-08T07:33:04;10.80;;;5.90;;
23743;SDS011;12052;53.478;10.182;2023-09-08T07:35:30;9.32;;;5.40;;
23743;SDS011;12052;53.478;10.182;2023-09-08T07:37:56;9.20;;;5.63;;
23743;SDS011;12052;53.478;10.182;2023-09-08T07:40:22;7.88;;;5.60;;
23743;SDS011;12052;53.478;10.182;2023-09-08T07:42:47;9.63;;;5.32;;
23743;SDS011;12052;53.478;10.182;2023-09-08T07:45:13;8.23;;;5.38;;
23743;SDS011;12052;53.478;10.182;2023-09-08T07:47:38;12.30;;;5.07;;
23743;SDS011;12052;53.478;10.182;2023-09-08T07:50:24;8.13;;;5.53;;
23743;SDS011;12052;53.478;10.182;2023-09-08T07:52:51;8.27;;;5.35;;
23743;SDS011;12052;53.478;10.182;2023-09-08T07:55:18;6.75;;;5.65;;
23743;SDS011;12052;53.478;10.182;2023-09-08T07:57:44;8.55;;;5.20;;
23743;SDS011;12052;53.478;10.182;2023-09-08T08:00:11;8.07;;;5.38;;
23743;SDS011;12052;53.478;10.182;2023-09-08T08:02:45;10.93;;;5.60;;
23743;SDS011;12052;53.478;10.182;2023-09-08T08:05:12;7.38;;;5.18;;
23743;SDS011;12052;53.478;10.182;2023-09-08T08:07:38;8.35;;;5.20;;
23743;SDS011;12052;53.478;10.182;2023-09-08T08:10:05;10.38;;;5.90;;
23743;SDS011;12052;53.478;10.182;2023-09-08T08:12:31;9.23;;;5.53;;
23743;SDS011;12052;53.478;10.182;2023-09-08T08:14:57;10.88;;;5.75;;
23743;SDS011;12052;53.478;10.182;2023-09-08T08:17:23;11.63;;;5.30;;
23743;SDS011;12052;53.478;10.182;2023-09-08T08:19:50;9.07;;;5.65;;
23743;SDS011;12052;53.478;10.182;2023-09-08T08:22:16;8.40;;;5.15;;
23743;SDS011;12052;53.478;10.182;2023-09-08T08:24:41;9.13;;;5.38;;
23743;SDS011;12052;53.478;10.182;2023-09-08T08:27:07;8.02;;;5.00;;
23743;SDS011;12052;53.478;10.182;2023-09-08T08:29:33;9.73;;;5.57;;
23743;SDS011;12052;53.478;10.182;2023-09-08T08:31:58;7.10;;;4.95;;
23743;SDS011;12052;53.478;10.182;2023-09-08T08:34:24;11.07;;;5.60;;
23743;SDS011;12052;53.478;10.182;2023-09-08T08:36:49;10.20;;;5.88;;
23743;SDS011;12052;53.478;10.182;2023-09-08T08:39:15;8.93;;;5.07;;
23743;SDS011;12052;53.478;10.182;2023-09-08T08:41:41;9.07;;;5.38;;
23743;SDS011;12052;53.478;10.182;2023-09-08T08:44:09;7.60;;;5.03;;
23743;SDS011;12052;53.478;10.182;2023-09-08T08:46:36;8.93;;;5.43;;
23743;SDS011;12052;53.478;10.182;2023-09-08T08:49:02;7.72;;;5.07;;
23743;SDS011;12052;53.478;10.182;2023-09-08T08:51:30;10.18;;;5.18;;
23743;SDS011;12052;53.478;10.182;2023-09-08T08:53:56;8.93;;;5.65;;
23743;SDS011;12052;53.478;10.182;2023-09-08T08:56:22;8.80;;;5.63;;
23743;SDS011;12052;53.478;10.182;2023-09-08T08:58:48;8.35;;;4.85;;
23743;SDS011;12052;53.478;10.182;2023-09-08T09:01:15;12.07;;;5.55;;
23743;SDS011;12052;53.478;10.182;2023-09-08T09:03:44;7.25;;;5.38;;
23743;SDS011;12052;53.478;10.182;2023-09-08T09:06:13;6.82;;;5.25;;
23743;SDS011;12052;53.478;10.182;2023-09-08T09:08:40;9.25;;;5.10;;
23743;SDS011;12052;53.478;10.182;2023-09-08T09:11:08;6.65;;;4.93;;
23743;SDS011;12052;53.478;10.182;2023-09-08T09:13:34;9.85;;;5.47;;
23743;SDS011;12052;53.478;10.182;2023-09-08T09:15:59;11.85;;;5.30;;
23743;SDS011;12052;53.478;10.182;2023-09-08T09:18:27;8.98;;;5.28;;
23743;SDS011;12052;53.478;10.182;2023-09-08T09:20:56;9.23;;;5.72;;
23743;SDS011;12052;53.478;10.182;2023-09-08T09:25:58;11.02;;;4.88;;
23743;SDS011;12052;53.478;10.182;2023-09-08T09:28:25;9.07;;;4.93;;
23743;SDS011;12052;53.478;10.182;2023-09-08T09:30:53;7.38;;;4.72;;
23743;SDS011;12052;53.478;10.182;2023-09-08T09:33:22;8.15;;;5.00;;
23743;SDS011;12052;53.478;10.182;2023-09-08T09:35:49;9.50;;;5.80;;
23743;SDS011;12052;53.478;10.182;2023-09-08T09:38:19;8.88;;;4.70;;
23743;SDS011;12052;53.478;10.182;2023-09-08T09:40:45;8.20;;;5.25;;
23743;SDS011;12052;53.478;10.182;2023-09-08T09:43:13;6.88;;;4.95;;
23743;SDS011;12052;53.478;10.182;2023-09-08T09:45:41;8.57;;;4.75;;
23743;SDS011;12052;53.478;10.182;2023-09-08T09:48:08;8.60;;;5.53;;
23743;SDS011;12052;53.478;10.182;2023-09-08T09:53:01;8.38;;;5.32;;
23743;SDS011;12052;53.478;10.182;2023-09-08T09:55:28;8.63;;;4.90;;
23743;SDS011;12052;53.478;10.182;2023-09-08T09:57:55;6.57;;;4.60;;
23743;SDS011;12052;53.478;10.182;2023-09-08T10:00:24;8.77;;;4.88;;
23743;SDS011;12052;53.478;10.182;2023-09-08T10:02:51;7.00;;;4.75;;
23743;SDS011;12052;53.478;10.182;2023-09-08T10:05:17;10.68;;;5.82;;
23743;SDS011;12052;53.478;10.182;2023-09-08T10:07:43;7.43;;;5.05;;
23743;SDS011;12052;53.478;10.182;2023-09-08T10:10:14;12.23;;;4.97;;
23743;SDS011;12052;53.478;10.182;2023-09-08T10:12:42;7.32;;;5.00;;
23743;SDS011;12052;53.478;10.182;2023-09-08T10:15:11;8.65;;;4.82;;
23743;SDS011;12052;53.478;10.182;2023-09-08T10:17:38;8.07;;;4.47;;
23743;SDS011;12052;53.478;10.182;2023-09-08T10:20:07;10.40;;;5.20;;
23743;SDS011;12052;53.478;10.182;2023-09-08T10:22:38;9.48;;;4.63;;
23743;SDS011;12052;53.478;10.182;2023-09-08T10:25:08;8.35;;;4.80;;
23743;SDS011;12052;53.478;10.182;2023-09-08T10:27:35;6.50;;;5.05;;
23743;SDS011;12052;53.478;10.182;2023-09-08T10:30:02;8.02;;;5.03;;
23743;SDS011;12052;53.478;10.182;2023-09-08T10:32:35;11.65;;;4.90;;
23743;SDS011;12052;53.478;10.182;2023-09-08T10:35:02;9.77;;;5.20;;
23743;SDS011;12052;53.478;10.182;2023-09-08T10:37:29;7.90;;;4.50;;
23743;SDS011;12052;53.478;10.182;2023-09-08T10:39:55;8.23;;;4.60;;
23743;SDS011;12052;53.478;10.182;2023-09-08T10:47:19;10.23;;;5.28;;
23743;SDS011;12052;53.478;10.182;2023-09-08T10:49:48;7.45;;;4.78;;
23743;SDS011;12052;53.478;10.182;2023-09-08T10:52:18;10.30;;;4.40;;
23743;SDS011;12052;53.478;10.182;2023-09-08T10:54:48;7.45;;;4.95;;
23743;SDS011;12052;53.478;10.182;2023-09-08T10:57:18;6.95;;;4.22;;
23743;SDS011;12052;53.478;10.182;2023-09-08T10:59:58;7.55;;;4.20;;
23743;SDS011;12052;53.478;10.182;2023-09-08T11:02:48;6.18;;;4.47;;
23743;SDS011;12052;53.478;10.182;2023-09-08T11:05:19;7.70;;;5.03;;
23743;SDS011;12052;53.478;10.182;2023-09-08T11:07:47;6.72;;;4.60;;
23743;SDS011;12052;53.478;10.182;2023-09-08T11:10:14;7.15;;;4.38;;
23743;SDS011;12052;53.478;10.182;2023-09-08T11:12:40;8.45;;;4.70;;
23743;SDS011;12052;53.478;10.182;2023-09-08T11:15:06;6.43;;;4.55;;
23743;SDS011;12052;53.478;10.182;2023-09-08T11:17:34;8.13;;;4.53;;
23743;SDS011;12052;53.478;10.182;2023-09-08T11:20:04;7.45;;;4.60;;
23743;SDS011;12052;53.478;10.182;2023-09-08T11:22:34;7.47;;;4.82;;
23743;SDS011;12052;53.478;10.182;2023-09-08T11:25:01;5.07;;;4.53;;
23743;SDS011;12052;53.478;10.182;2023-09-08T11:27:29;5.80;;;4.03;;
23743;SDS011;12052;53.478;10.182;2023-09-08T11:29:55;8.65;;;4.25;;
23743;SDS011;12052;53.478;10.182;2023-09-08T11:32:22;7.95;;;4.80;;
23743;SDS011;12052;53.478;10.182;2023-09-08T11:34:48;6.85;;;4.35;;
23743;SDS011;12052;53.478;10.182;2023-09-08T11:37:14;5.90;;;4.60;;
23743;SDS011;12052;53.478;10.182;2023-09-08T11:39:43;5.55;;;4.22;;
23743;SDS011;12052;53.478;10.182;2023-09-08T11:42:12;7.32;;;4.38;;
23743;SDS011;12052;53.478;10.182;2023-09-08T11:44:40;7.93;;;4.18;;
23743;SDS011;12052;53.478;10.182;2023-09-08T11:47:08;6.40;;;4.28;;
23743;SDS011;12052;53.478;10.182;2023-09-08T11:52:01;5.32;;;4.00;;
23743;SDS011;12052;53.478;10.182;2023-09-08T11:54:27;5.85;;;4.40;;
23743;SDS011;12052;53.478;10.182;2023-09-08T11:56:53;9.13;;;4.72;;
23743;SDS011;12052;53.478;10.182;2023-09-08T11:59:19;6.60;;;4.32;;
23743;SDS011;12052;53.478;10.182;2023-09-08T12:01:45;6.38;;;4.38;;
23743;SDS011;12052;53.478;10.182;2023-09-08T12:04:17;6.70;;;4.00;;
23743;SDS011;12052;53.478;10.182;2023-09-08T12:06:45;5.50;;;3.80;;
23743;SDS011;12052;53.478;10.182;2023-09-08T12:09:11;6.60;;;4.38;;
23743;SDS011;12052;53.478;10.182;2023-09-08T12:11:37;5.53;;;3.75;;
23743;SDS011;12052;53.478;10.182;2023-09-08T12:14:07;4.80;;;3.85;;
23743;SDS011;12052;53.478;10.182;2023-09-08T12:16:34;6.40;;;4.30;;
23743;SDS011;12052;53.478;10.182;2023-09-08T12:19:00;5.80;;;3.90;;
23743;SDS011;12052;53.478;10.182;2023-09-08T12:21:26;8.55;;;4.68;;
23743;SDS011;12052;53.478;10.182;2023-09-08T12:23:52;4.75;;;3.60;;
23743;SDS011;12052;53.478;10.182;2023-09-08T12:26:18;5.55;;;3.63;;
23743;SDS011;12052;53.478;10.182;2023-09-08T12:28:45;5.75;;;3.85;;
23743;SDS011;12052;53.478;10.182;2023-09-08T12:31:13;4.88;;;3.80;;
23743;SDS011;12052;53.478;10.182;2023-09-08T12:33:38;5.43;;;3.50;;
23743;SDS011;12052;53.478;10.182;2023-09-08T12:36:12;5.70;;;3.67;;
23743;SDS011;12052;53.478;10.182;2023-09-08T12:38:39;4.63;;;2.55;;
23743;SDS011;12052;53.478;10.182;2023-09-08T12:41:05;6.22;;;2.80;;
23743;SDS011;12052;53.478;10.182;2023-09-08T12:43:30;3.83;;;2.67;;
23743;SDS011;12052;53.478;10.182;2023-09-08T12:45:56;4.50;;;3.20;;
23743;SDS011;12052;53.478;10.182;2023-09-08T12:48:22;5.47;;;3.00;;
23743;SDS011;12052;53.478;10.182;2023-09-08T12:50:48;5.28;;;3.00;;
23743;SDS011;12052;53.478;10.182;2023-09-08T12:53:14;3.90;;;2.53;;
23743;SDS011;12052;53.478;10.182;2023-09-08T12:55:40;8.60;;;2.70;;
23743;SDS011;12052;53.478;10.182;2023-09-08T12:58:05;4.57;;;3.08;;
23743;SDS011;12052;53.478;10.182;2023-09-08T13:00:31;3.83;;;3.00;;
23743;SDS011;12052;53.478;10.182;2023-09-08T13:02:56;4.60;;;3.47;;
23743;SDS011;12052;53.478;10.182;2023-09-08T13:05:22;4.32;;;2.80;;
23743;SDS011;12052;53.478;10.182;2023-09-08T13:07:48;5.72;;;3.38;;
23743;SDS011;12052;53.478;10.182;2023-09-08T13:10:13;3.88;;;3.00;;
23743;SDS011;12052;53.478;10.182;2023-09-08T13:12:40;3.97;;;2.90;;
23743;SDS011;12052;53.478;10.182;2023-09-08T13:15:06;6.28;;;3.10;;
23743;SDS011;12052;53.478;10.182;2023-09-08T13:17:32;3.67;;;2.83;;
23743;SDS011;12052;53.478;10.182;2023-09-08T13:19:58;6.95;;;3.55;;
23743;SDS011;12052;53.478;10.182;2023-09-08T13:22:23;5.80;;;3.05;;
23743;SDS011;12052;53.478;10.182;2023-09-08T13:24:49;3.95;;;3.00;;
23743;SDS011;12052;53.478;10.182;2023-09-08T13:27:14;4.80;;;3.42;;
23743;SDS011;12052;53.478;10.182;2023-09-08T13:29:42;6.63;;;3.70;;
23743;SDS011;12052;53.478;10.182;2023-09-08T13:32:08;4.80;;;3.53;;
23743;SDS011;12052;53.478;10.182;2023-09-08T13:34:33;4.40;;;2.70;;
23743;SDS011;12052;53.478;10.182;2023-09-08T13:37:00;7.07;;;3.40;;
23743;SDS011;12052;53.478;10.182;2023-09-08T13:39:27;4.63;;;3.05;;
23743;SDS011;12052;53.478;10.182;2023-09-08T13:41:54;5.18;;;3.65;;
23743;SDS011;12052;53.478;10.182;2023-09-08T13:44:20;6.70;;;3.00;;
23743;SDS011;12052;53.478;10.182;2023-09-08T13:46:48;5.97;;;2.53;;
23743;SDS011;12052;53.478;10.182;2023-09-08T13:49:14;6.78;;;2.90;;
23743;SDS011;12052;53.478;10.182;2023-09-08T13:51:40;4.47;;;2.97;;
23743;SDS011;12052;53.478;10.182;2023-09-08T13:54:06;5.97;;;3.40;;
23743;SDS011;12052;53.478;10.182;2023-09-08T13:56:32;5.30;;;3.50;;
23743;SDS011;12052;53.478;10.182;2023-09-08T13:58:58;5.75;;;3.55;;
23743;SDS011;12052;53.478;10.182;2023-09-08T14:01:24;5.22;;;3.30;;
23743;SDS011;12052;53.478;10.182;2023-09-08T14:03:52;4.55;;;3.28;;
23743;SDS011;12052;53.478;10.182;2023-09-08T14:06:18;6.57;;;3.22;;
23743;SDS011;12052;53.478;10.182;2023-09-08T14:08:44;5.32;;;3.45;;
23743;SDS011;12052;53.478;10.182;2023-09-08T14:11:09;7.25;;;3.45;;
23743;SDS011;12052;53.478;10.182;2023-09-08T14:13:37;4.53;;;3.17;;
23743;SDS011;12052;53.478;10.182;2023-09-08T14:16:03;4.68;;;3.20;;
23743;SDS011;12052;53.478;10.182;2023-09-08T14:18:28;6.00;;;3.20;;
23743;SDS011;12052;53.478;10.182;2023-09-08T14:20:55;4.05;;;3.10;;
23743;SDS011;12052;53.478;10.182;2023-09-08T14:23:20;8.25;;;3.22;;
23743;SDS011;12052;53.478;10.182;2023-09-08T14:25:46;5.00;;;3.53;;
23743;SDS011;12052;53.478;10.182;2023-09-08T14:28:11;8.38;;;3.45;;
23743;SDS011;12052;53.478;10.182;2023-09-08T14:30:37;5.70;;;3.30;;
23743;SDS011;12052;53.478;10.182;2023-09-08T14:33:03;5.78;;;3.30;;
23743;SDS011;12052;53.478;10.182;2023-09-08T14:35:29;4.78;;;3.65;;
23743;SDS011;12052;53.478;10.182;2023-09-08T14:37:54;5.95;;;3.55;;
23743;SDS011;12052;53.478;10.182;2023-09-08T14:40:21;4.45;;;3.53;;
23743;SDS011;12052;53.478;10.182;2023-09-08T14:42:47;6.45;;;3.45;;